sensor_id;sensor_type;location;lat;lon;timestamp;temperature;humidity
65637;DHT22;52327;42.622;23.316;2023-04-30T00:01:34;8.65;78.40
65637;DHT22;52327;42.622;23.316;2023-04-30T00:04:09;8.54;79.02
65637;DHT22;52327;42.622;23.316;2023-04-30T00:06:42;8.46;79.78
65637;DHT22;52327;42.622;23.316;2023-04-30T00:09:24;8.57;77.64
65637;DHT22;52327;42.622;23.316;2023-04-30T00:11:50;8.50;79.86
65637;DHT22;52327;42.622;23.316;2023-04-30T00:14:24;8.56;79.58
65637;DHT22;52327;42.622;23.316;2023-04-30T00:16:55;8.58;78.93
65637;DHT22;52327;42.622;23.316;2023-04-30T00:19:23;8.48;80.09
65637;DHT22;52327;42.622;23.316;2023-04-30T00:21:52;8.38;79.40
65637;DHT22;52327;42.622;23.316;2023-04-30T00:24:27;8.36;80.33
65637;DHT22;52327;42.622;23.316;2023-04-30T00:26:55;8.47;79.72
65637;DHT22;52327;42.622;23.316;2023-04-30T00:29:21;8.44;80.36
65637;DHT22;52327;42.622;23.316;2023-04-30T00:31:54;8.36;80.15
65637;DHT22;52327;42.622;23.316;2023-04-30T00:34:20;8.51;77.70
65637;DHT22;52327;42.622;23.316;2023-04-30T00:36:45;8.44;79.24
65637;DHT22;52327;42.622;23.316;2023-04-30T00:39:11;8.26;78.23
65637;DHT22;52327;42.622;23.316;2023-04-30T00:41:41;8.33;78.48
65637;DHT22;52327;42.622;23.316;2023-04-30T00:44:15;8.27;78.14
65637;DHT22;52327;42.622;23.316;2023-04-30T00:46:43;8.23;78.54
65637;DHT22;52327;42.622;23.316;2023-04-30T00:49:11;8.29;79.04
65637;DHT22;52327;42.622;23.316;2023-04-30T00:51:39;8.14;77.77
65637;DHT22;52327;42.622;23.316;2023-04-30T00:54:05;8.16;79.27
65637;DHT22;52327;42.622;23.316;2023-04-30T00:56:31;8.07;78.15
65637;DHT22;52327;42.622;23.316;2023-04-30T00:58:57;8.16;77.87
65637;DHT22;52327;42.622;23.316;2023-04-30T01:01:27;7.99;78.31
65637;DHT22;52327;42.622;23.316;2023-04-30T01:03:57;8.00;78.75
65637;DHT22;52327;42.622;23.316;2023-04-30T01:06:25;7.95;78.09
65637;DHT22;52327;42.622;23.316;2023-04-30T01:08:52;8.10;78.38
65637;DHT22;52327;42.622;23.316;2023-04-30T01:14:29;7.86;77.47
65637;DHT22;52327;42.622;23.316;2023-04-30T01:21:57;7.83;77.25
65637;DHT22;52327;42.622;23.316;2023-04-30T01:24:44;7.78;77.79
65637;DHT22;52327;42.622;23.316;2023-04-30T01:27:23;7.72;77.75
65637;DHT22;52327;42.622;23.316;2023-04-30T01:30:06;7.72;78.16
65637;DHT22;52327;42.622;23.316;2023-04-30T01:32:32;7.72;79.11
65637;DHT22;52327;42.622;23.316;2023-04-30T01:34:57;7.68;78.12
65637;DHT22;52327;42.622;23.316;2023-04-30T01:43:10;7.71;77.60
65637;DHT22;52327;42.622;23.316;2023-04-30T01:46:13;7.72;78.01
65637;DHT22;52327;42.622;23.316;2023-04-30T01:51:22;7.74;77.51
65637;DHT22;52327;42.622;23.316;2023-04-30T01:53:57;7.71;77.81
65637;DHT22;52327;42.622;23.316;2023-04-30T01:56:30;7.72;78.30
65637;DHT22;52327;42.622;23.316;2023-04-30T01:58:58;7.72;79.08
65637;DHT22;52327;42.622;23.316;2023-04-30T02:01:28;7.74;78.14
65637;DHT22;52327;42.622;23.316;2023-04-30T02:03:55;7.64;78.87
65637;DHT22;52327;42.622;23.316;2023-04-30T02:06:22;7.65;79.57
65637;DHT22;52327;42.622;23.316;2023-04-30T02:08:51;7.66;78.57
65637;DHT22;52327;42.622;23.316;2023-04-30T02:11:16;7.88;78.30
65637;DHT22;52327;42.622;23.316;2023-04-30T02:13:47;7.83;77.96
65637;DHT22;52327;42.622;23.316;2023-04-30T02:16:13;7.95;78.84
65637;DHT22;52327;42.622;23.316;2023-04-30T02:18:41;7.96;78.37
65637;DHT22;52327;42.622;23.316;2023-04-30T02:21:09;7.93;78.25
65637;DHT22;52327;42.622;23.316;2023-04-30T02:23:40;7.85;78.49
65637;DHT22;52327;42.622;23.316;2023-04-30T02:26:08;7.89;78.93
65637;DHT22;52327;42.622;23.316;2023-04-30T02:28:37;7.82;78.28
65637;DHT22;52327;42.622;23.316;2023-04-30T02:31:25;7.89;78.39
65637;DHT22;52327;42.622;23.316;2023-04-30T02:33:51;7.85;78.54
65637;DHT22;52327;42.622;23.316;2023-04-30T02:36:17;7.85;78.94
65637;DHT22;52327;42.622;23.316;2023-04-30T02:38:42;7.90;78.52
65637;DHT22;52327;42.622;23.316;2023-04-30T02:41:08;7.97;78.47
65637;DHT22;52327;42.622;23.316;2023-04-30T02:43:33;7.97;78.33
65637;DHT22;52327;42.622;23.316;2023-04-30T02:46:02;8.06;78.13
65637;DHT22;52327;42.622;23.316;2023-04-30T02:48:30;8.10;78.41
65637;DHT22;52327;42.622;23.316;2023-04-30T02:50:56;8.37;77.78
65637;DHT22;52327;42.622;23.316;2023-04-30T02:53:24;8.43;77.74
65637;DHT22;52327;42.622;23.316;2023-04-30T02:55:54;8.46;77.48
65637;DHT22;52327;42.622;23.316;2023-04-30T02:58:20;8.65;76.77
65637;DHT22;52327;42.622;23.316;2023-04-30T03:00:46;8.65;76.86
65637;DHT22;52327;42.622;23.316;2023-04-30T03:03:14;8.84;76.95
65637;DHT22;52327;42.622;23.316;2023-04-30T03:05:42;8.85;77.15
65637;DHT22;52327;42.622;23.316;2023-04-30T03:08:08;8.97;77.22
65637;DHT22;52327;42.622;23.316;2023-04-30T03:10:34;9.04;77.21
65637;DHT22;52327;42.622;23.316;2023-04-30T03:13:09;8.99;77.04
65637;DHT22;52327;42.622;23.316;2023-04-30T03:15:38;8.98;77.57
65637;DHT22;52327;42.622;23.316;2023-04-30T03:18:06;9.14;77.74
65637;DHT22;52327;42.622;23.316;2023-04-30T03:20:35;9.22;77.33
65637;DHT22;52327;42.622;23.316;2023-04-30T03:23:06;9.46;75.94
65637;DHT22;52327;42.622;23.316;2023-04-30T03:25:31;9.63;76.22
65637;DHT22;52327;42.622;23.316;2023-04-30T03:30:43;9.74;76.23
65637;DHT22;52327;42.622;23.316;2023-04-30T03:33:09;9.84;76.15
65637;DHT22;52327;42.622;23.316;2023-04-30T03:35:34;9.84;77.22
65637;DHT22;52327;42.622;23.316;2023-04-30T03:38:09;9.84;77.02
65637;DHT22;52327;42.622;23.316;2023-04-30T03:40:37;9.89;77.34
65637;DHT22;52327;42.622;23.316;2023-04-30T03:43:05;9.86;77.66
65637;DHT22;52327;42.622;23.316;2023-04-30T03:45:37;10.03;76.52
65637;DHT22;52327;42.622;23.316;2023-04-30T03:48:11;10.12;75.49
65637;DHT22;52327;42.622;23.316;2023-04-30T03:50:37;10.22;75.89
65637;DHT22;52327;42.622;23.316;2023-04-30T03:53:10;10.24;77.17
65637;DHT22;52327;42.622;23.316;2023-04-30T03:55:43;10.41;75.95
65637;DHT22;52327;42.622;23.316;2023-04-30T03:58:14;10.32;77.51
65637;DHT22;52327;42.622;23.316;2023-04-30T04:00:43;10.31;76.17
65637;DHT22;52327;42.622;23.316;2023-04-30T04:03:11;10.28;75.98
65637;DHT22;52327;42.622;23.316;2023-04-30T04:05:39;10.27;75.91
65637;DHT22;52327;42.622;23.316;2023-04-30T04:08:08;10.41;76.04
65637;DHT22;52327;42.622;23.316;2023-04-30T04:10:41;10.52;75.37
65637;DHT22;52327;42.622;23.316;2023-04-30T04:13:07;10.48;74.67
65637;DHT22;52327;42.622;23.316;2023-04-30T04:15:35;10.61;75.17
65637;DHT22;52327;42.622;23.316;2023-04-30T04:18:01;10.68;75.10
65637;DHT22;52327;42.622;23.316;2023-04-30T04:20:26;10.77;75.22
65637;DHT22;52327;42.622;23.316;2023-04-30T04:22:54;10.88;75.86
65637;DHT22;52327;42.622;23.316;2023-04-30T04:25:19;10.86;73.80
65637;DHT22;52327;42.622;23.316;2023-04-30T04:27:50;10.99;74.69
65637;DHT22;52327;42.622;23.316;2023-04-30T04:30:16;11.03;72.44
65637;DHT22;52327;42.622;23.316;2023-04-30T04:32:42;11.20;71.63
65637;DHT22;52327;42.622;23.316;2023-04-30T04:35:15;11.37;70.95
65637;DHT22;52327;42.622;23.316;2023-04-30T04:37:40;11.40;72.10
65637;DHT22;52327;42.622;23.316;2023-04-30T04:40:06;11.53;71.20
65637;DHT22;52327;42.622;23.316;2023-04-30T04:42:32;11.63;72.39
65637;DHT22;52327;42.622;23.316;2023-04-30T04:44:58;11.71;72.91
65637;DHT22;52327;42.622;23.316;2023-04-30T04:47:23;11.81;73.08
65637;DHT22;52327;42.622;23.316;2023-04-30T04:49:49;11.85;73.24
65637;DHT22;52327;42.622;23.316;2023-04-30T04:52:14;11.86;73.21
65637;DHT22;52327;42.622;23.316;2023-04-30T04:54:39;11.92;73.20
65637;DHT22;52327;42.622;23.316;2023-04-30T04:57:05;11.95;73.23
65637;DHT22;52327;42.622;23.316;2023-04-30T04:59:30;11.92;73.12
65637;DHT22;52327;42.622;23.316;2023-04-30T05:01:56;12.02;72.92
65637;DHT22;52327;42.622;23.316;2023-04-30T05:04:22;12.04;73.17
65637;DHT22;52327;42.622;23.316;2023-04-30T05:06:48;12.04;72.50
65637;DHT22;52327;42.622;23.316;2023-04-30T05:09:13;12.05;71.99
65637;DHT22;52327;42.622;23.316;2023-04-30T05:11:39;12.06;72.38
65637;DHT22;52327;42.622;23.316;2023-04-30T05:14:05;12.14;72.22
65637;DHT22;52327;42.622;23.316;2023-04-30T05:16:31;12.09;72.40
65637;DHT22;52327;42.622;23.316;2023-04-30T05:18:56;12.06;73.16
65637;DHT22;52327;42.622;23.316;2023-04-30T05:21:22;12.09;72.83
65637;DHT22;52327;42.622;23.316;2023-04-30T05:23:47;12.12;73.12
65637;DHT22;52327;42.622;23.316;2023-04-30T05:26:13;12.09;72.93
65637;DHT22;52327;42.622;23.316;2023-04-30T05:28:38;12.26;72.76
65637;DHT22;52327;42.622;23.316;2023-04-30T05:31:04;12.25;72.57
65637;DHT22;52327;42.622;23.316;2023-04-30T05:33:29;12.32;72.69
65637;DHT22;52327;42.622;23.316;2023-04-30T05:35:55;12.33;71.77
65637;DHT22;52327;42.622;23.316;2023-04-30T05:38:20;12.55;70.32
65637;DHT22;52327;42.622;23.316;2023-04-30T05:40:45;12.57;69.80
65637;DHT22;52327;42.622;23.316;2023-04-30T05:43:11;12.61;69.42
65637;DHT22;52327;42.622;23.316;2023-04-30T05:45:36;12.28;67.20
65637;DHT22;52327;42.622;23.316;2023-04-30T05:48:02;12.19;68.21
65637;DHT22;52327;42.622;23.316;2023-04-30T05:50:28;12.26;67.64
65637;DHT22;52327;42.622;23.316;2023-04-30T05:52:53;12.36;68.08
65637;DHT22;52327;42.622;23.316;2023-04-30T05:55:19;12.39;67.16
65637;DHT22;52327;42.622;23.316;2023-04-30T05:57:44;12.61;68.32
65637;DHT22;52327;42.622;23.316;2023-04-30T06:00:10;12.84;67.80
65637;DHT22;52327;42.622;23.316;2023-04-30T06:02:36;13.08;67.88
65637;DHT22;52327;42.622;23.316;2023-04-30T06:05:02;13.24;68.24
65637;DHT22;52327;42.622;23.316;2023-04-30T06:07:27;13.29;68.28
65637;DHT22;52327;42.622;23.316;2023-04-30T06:09:53;13.41;68.14
65637;DHT22;52327;42.622;23.316;2023-04-30T06:12:18;13.57;67.68
65637;DHT22;52327;42.622;23.316;2023-04-30T06:14:44;13.72;68.13
65637;DHT22;52327;42.622;23.316;2023-04-30T06:17:11;13.80;68.43
65637;DHT22;52327;42.622;23.316;2023-04-30T06:19:36;13.92;67.73
65637;DHT22;52327;42.622;23.316;2023-04-30T06:22:03;14.05;67.46
65637;DHT22;52327;42.622;23.316;2023-04-30T06:24:29;14.08;65.30
65637;DHT22;52327;42.622;23.316;2023-04-30T06:26:55;14.16;65.60
65637;DHT22;52327;42.622;23.316;2023-04-30T06:29:20;14.26;65.20
65637;DHT22;52327;42.622;23.316;2023-04-30T06:31:49;14.29;65.10
65637;DHT22;52327;42.622;23.316;2023-04-30T06:34:15;14.38;64.25
65637;DHT22;52327;42.622;23.316;2023-04-30T06:36:41;14.38;63.45
65637;DHT22;52327;42.622;23.316;2023-04-30T06:39:06;14.30;62.93
65637;DHT22;52327;42.622;23.316;2023-04-30T06:41:32;14.19;61.93
65637;DHT22;52327;42.622;23.316;2023-04-30T06:44:00;13.92;62.73
65637;DHT22;52327;42.622;23.316;2023-04-30T06:46:26;13.34;64.02
65637;DHT22;52327;42.622;23.316;2023-04-30T06:48:51;12.96;65.35
65637;DHT22;52327;42.622;23.316;2023-04-30T06:51:16;12.94;66.09
65637;DHT22;52327;42.622;23.316;2023-04-30T06:53:42;13.01;65.81
65637;DHT22;52327;42.622;23.316;2023-04-30T06:56:07;13.42;65.32
65637;DHT22;52327;42.622;23.316;2023-04-30T06:58:33;13.89;65.52
65637;DHT22;52327;42.622;23.316;2023-04-30T07:00:58;14.27;62.83
65637;DHT22;52327;42.622;23.316;2023-04-30T07:03:25;14.67;63.30
65637;DHT22;52327;42.622;23.316;2023-04-30T07:05:51;14.98;61.60
65637;DHT22;52327;42.622;23.316;2023-04-30T07:08:18;15.16;60.90
65637;DHT22;52327;42.622;23.316;2023-04-30T07:10:43;15.29;60.55
65637;DHT22;52327;42.622;23.316;2023-04-30T07:13:09;15.40;58.94
65637;DHT22;52327;42.622;23.316;2023-04-30T07:15:34;15.62;58.66
65637;DHT22;52327;42.622;23.316;2023-04-30T07:18:00;15.83;58.14
65637;DHT22;52327;42.622;23.316;2023-04-30T07:20:25;15.97;57.48
65637;DHT22;52327;42.622;23.316;2023-04-30T07:22:51;15.91;58.31
65637;DHT22;52327;42.622;23.316;2023-04-30T07:25:16;15.82;57.75
65637;DHT22;52327;42.622;23.316;2023-04-30T07:27:42;15.67;58.83
65637;DHT22;52327;42.622;23.316;2023-04-30T07:30:09;15.49;57.14
65637;DHT22;52327;42.622;23.316;2023-04-30T07:32:36;15.79;59.23
65637;DHT22;52327;42.622;23.316;2023-04-30T07:35:03;15.76;58.50
65637;DHT22;52327;42.622;23.316;2023-04-30T07:37:28;15.60;57.05
65637;DHT22;52327;42.622;23.316;2023-04-30T07:39:54;15.32;57.82
65637;DHT22;52327;42.622;23.316;2023-04-30T07:42:19;15.28;58.13
65637;DHT22;52327;42.622;23.316;2023-04-30T07:44:45;15.35;57.82
65637;DHT22;52327;42.622;23.316;2023-04-30T07:47:10;15.18;58.16
65637;DHT22;52327;42.622;23.316;2023-04-30T07:49:36;15.05;58.14
65637;DHT22;52327;42.622;23.316;2023-04-30T07:52:01;15.05;57.23
65637;DHT22;52327;42.622;23.316;2023-04-30T07:54:27;15.33;58.68
65637;DHT22;52327;42.622;23.316;2023-04-30T07:56:53;15.39;59.03
65637;DHT22;52327;42.622;23.316;2023-04-30T07:59:18;15.39;57.09
65637;DHT22;52327;42.622;23.316;2023-04-30T08:01:45;15.36;56.09
65637;DHT22;52327;42.622;23.316;2023-04-30T08:04:11;15.62;57.34
65637;DHT22;52327;42.622;23.316;2023-04-30T08:06:36;15.89;56.21
65637;DHT22;52327;42.622;23.316;2023-04-30T08:09:02;15.59;55.78
65637;DHT22;52327;42.622;23.316;2023-04-30T08:11:27;15.26;57.02
65637;DHT22;52327;42.622;23.316;2023-04-30T08:13:53;14.95;56.77
65637;DHT22;52327;42.622;23.316;2023-04-30T08:16:19;14.74;56.91
65637;DHT22;52327;42.622;23.316;2023-04-30T08:18:45;14.60;57.21
65637;DHT22;52327;42.622;23.316;2023-04-30T08:21:14;14.91;55.84
65637;DHT22;52327;42.622;23.316;2023-04-30T08:23:40;15.19;55.98
65637;DHT22;52327;42.622;23.316;2023-04-30T08:26:05;15.08;55.93
65637;DHT22;52327;42.622;23.316;2023-04-30T08:28:31;15.39;56.77
65637;DHT22;52327;42.622;23.316;2023-04-30T08:30:56;15.59;54.42
65637;DHT22;52327;42.622;23.316;2023-04-30T08:33:22;15.26;53.87
65637;DHT22;52327;42.622;23.316;2023-04-30T08:35:47;15.40;54.58
65637;DHT22;52327;42.622;23.316;2023-04-30T08:38:13;15.23;52.75
65637;DHT22;52327;42.622;23.316;2023-04-30T08:40:39;15.31;54.19
65637;DHT22;52327;42.622;23.316;2023-04-30T08:43:08;15.83;51.96
65637;DHT22;52327;42.622;23.316;2023-04-30T08:45:35;16.26;50.23
65637;DHT22;52327;42.622;23.316;2023-04-30T08:48:02;16.42;49.47
65637;DHT22;52327;42.622;23.316;2023-04-30T08:50:29;16.72;51.31
65637;DHT22;52327;42.622;23.316;2023-04-30T08:52:57;16.72;48.21
65637;DHT22;52327;42.622;23.316;2023-04-30T08:55:24;16.49;49.48
65637;DHT22;52327;42.622;23.316;2023-04-30T08:57:50;16.59;49.18
65637;DHT22;52327;42.622;23.316;2023-04-30T09:00:16;16.80;49.73
65637;DHT22;52327;42.622;23.316;2023-04-30T09:02:41;16.40;48.72
65637;DHT22;52327;42.622;23.316;2023-04-30T09:05:12;16.25;49.61
65637;DHT22;52327;42.622;23.316;2023-04-30T09:07:40;16.31;50.70
65637;DHT22;52327;42.622;23.316;2023-04-30T09:10:17;16.15;49.27
65637;DHT22;52327;42.622;23.316;2023-04-30T09:12:42;15.87;49.98
65637;DHT22;52327;42.622;23.316;2023-04-30T09:15:10;16.14;50.88
65637;DHT22;52327;42.622;23.316;2023-04-30T09:17:37;16.20;50.93
65637;DHT22;52327;42.622;23.316;2023-04-30T09:20:10;16.20;51.66
65637;DHT22;52327;42.622;23.316;2023-04-30T09:22:37;16.18;51.00
65637;DHT22;52327;42.622;23.316;2023-04-30T09:25:03;15.80;49.21
65637;DHT22;52327;42.622;23.316;2023-04-30T09:27:29;15.67;50.72
65637;DHT22;52327;42.622;23.316;2023-04-30T09:29:55;15.79;51.59
65637;DHT22;52327;42.622;23.316;2023-04-30T09:32:20;16.14;51.46
65637;DHT22;52327;42.622;23.316;2023-04-30T09:34:46;16.35;50.54
65637;DHT22;52327;42.622;23.316;2023-04-30T09:37:12;16.58;49.46
65637;DHT22;52327;42.622;23.316;2023-04-30T09:39:47;16.69;49.33
65637;DHT22;52327;42.622;23.316;2023-04-30T09:42:13;16.52;49.28
65637;DHT22;52327;42.622;23.316;2023-04-30T09:44:40;16.47;48.93
65637;DHT22;52327;42.622;23.316;2023-04-30T09:47:18;16.32;49.86
65637;DHT22;52327;42.622;23.316;2023-04-30T09:49:47;16.38;48.84
65637;DHT22;52327;42.622;23.316;2023-04-30T09:52:16;16.58;47.64
65637;DHT22;52327;42.622;23.316;2023-04-30T09:54:43;17.06;47.36
65637;DHT22;52327;42.622;23.316;2023-04-30T09:57:10;17.60;46.48
65637;DHT22;52327;42.622;23.316;2023-04-30T09:59:37;17.63;46.46
65637;DHT22;52327;42.622;23.316;2023-04-30T10:02:05;17.12;46.58
65637;DHT22;52327;42.622;23.316;2023-04-30T10:04:33;17.23;47.56
65637;DHT22;52327;42.622;23.316;2023-04-30T10:07:03;17.41;47.42
65637;DHT22;52327;42.622;23.316;2023-04-30T10:09:37;17.73;46.85
65637;DHT22;52327;42.622;23.316;2023-04-30T10:12:07;17.33;46.35
65637;DHT22;52327;42.622;23.316;2023-04-30T10:14:48;17.28;47.07
65637;DHT22;52327;42.622;23.316;2023-04-30T10:17:16;17.51;46.64
65637;DHT22;52327;42.622;23.316;2023-04-30T10:19:45;17.33;47.09
65637;DHT22;52327;42.622;23.316;2023-04-30T10:22:12;17.10;47.61
65637;DHT22;52327;42.622;23.316;2023-04-30T10:24:38;17.24;46.97
65637;DHT22;52327;42.622;23.316;2023-04-30T10:27:03;16.92;47.25
65637;DHT22;52327;42.622;23.316;2023-04-30T10:29:29;16.55;48.51
65637;DHT22;52327;42.622;23.316;2023-04-30T10:31:54;16.49;48.83
65637;DHT22;52327;42.622;23.316;2023-04-30T10:34:45;15.91;51.85
65637;DHT22;52327;42.622;23.316;2023-04-30T10:39:46;13.93;72.70
65637;DHT22;52327;42.622;23.316;2023-04-30T10:42:12;12.86;75.87
65637;DHT22;52327;42.622;23.316;2023-04-30T10:44:38;12.19;82.03
65637;DHT22;52327;42.622;23.316;2023-04-30T10:47:05;12.02;84.26
65637;DHT22;52327;42.622;23.316;2023-04-30T10:49:31;12.12;85.76
65637;DHT22;52327;42.622;23.316;2023-04-30T10:52:01;12.36;86.31
65637;DHT22;52327;42.622;23.316;2023-04-30T10:54:33;12.64;86.52
65637;DHT22;52327;42.622;23.316;2023-04-30T11:02:44;14.99;86.84
65637;DHT22;52327;42.622;23.316;2023-04-30T11:05:15;15.47;83.99
65637;DHT22;52327;42.622;23.316;2023-04-30T11:07:56;15.39;74.20
65637;DHT22;52327;42.622;23.316;2023-04-30T11:10:23;15.43;71.93
65637;DHT22;52327;42.622;23.316;2023-04-30T11:12:51;15.54;68.71
65637;DHT22;52327;42.622;23.316;2023-04-30T11:15:18;15.76;70.30
65637;DHT22;52327;42.622;23.316;2023-04-30T11:17:48;16.20;66.94
65637;DHT22;52327;42.622;23.316;2023-04-30T11:20:18;15.96;68.05
65637;DHT22;52327;42.622;23.316;2023-04-30T11:22:44;16.80;62.52
65637;DHT22;52327;42.622;23.316;2023-04-30T11:25:11;17.33;65.28
65637;DHT22;52327;42.622;23.316;2023-04-30T11:27:40;17.71;62.13
65637;DHT22;52327;42.622;23.316;2023-04-30T11:30:15;17.61;61.00
65637;DHT22;52327;42.622;23.316;2023-04-30T11:32:50;17.23;62.78
65637;DHT22;52327;42.622;23.316;2023-04-30T11:35:17;16.73;61.33
65637;DHT22;52327;42.622;23.316;2023-04-30T11:37:44;16.56;62.02
65637;DHT22;52327;42.622;23.316;2023-04-30T11:40:11;16.48;60.66
65637;DHT22;52327;42.622;23.316;2023-04-30T11:42:42;16.62;59.95
65637;DHT22;52327;42.622;23.316;2023-04-30T11:45:16;17.54;59.09
65637;DHT22;52327;42.622;23.316;2023-04-30T11:47:49;17.95;60.54
65637;DHT22;52327;42.622;23.316;2023-04-30T11:50:22;18.86;56.18
65637;DHT22;52327;42.622;23.316;2023-04-30T11:52:55;20.26;49.51
65637;DHT22;52327;42.622;23.316;2023-04-30T11:55:26;21.19;50.27
65637;DHT22;52327;42.622;23.316;2023-04-30T11:57:53;23.09;43.18
65637;DHT22;52327;42.622;23.316;2023-04-30T12:00:24;22.82;43.22
65637;DHT22;52327;42.622;23.316;2023-04-30T12:02:50;25.02;40.48
65637;DHT22;52327;42.622;23.316;2023-04-30T12:05:23;25.52;40.42
65637;DHT22;52327;42.622;23.316;2023-04-30T12:08:03;23.03;47.62
65637;DHT22;52327;42.622;23.316;2023-04-30T12:10:31;22.07;48.76
65637;DHT22;52327;42.622;23.316;2023-04-30T12:12:57;21.69;51.60
65637;DHT22;52327;42.622;23.316;2023-04-30T12:15:24;24.73;47.65
65637;DHT22;52327;42.622;23.316;2023-04-30T12:17:58;23.45;45.71
65637;DHT22;52327;42.622;23.316;2023-04-30T12:20:30;22.27;47.70
65637;DHT22;52327;42.622;23.316;2023-04-30T12:22:56;20.91;51.91
65637;DHT22;52327;42.622;23.316;2023-04-30T12:25:22;19.97;55.13
65637;DHT22;52327;42.622;23.316;2023-04-30T12:27:50;19.65;54.96
65637;DHT22;52327;42.622;23.316;2023-04-30T12:30:28;19.38;58.17
65637;DHT22;52327;42.622;23.316;2023-04-30T12:32:57;18.67;56.97
65637;DHT22;52327;42.622;23.316;2023-04-30T12:35:23;18.61;55.00
65637;DHT22;52327;42.622;23.316;2023-04-30T12:37:59;18.15;59.29
65637;DHT22;52327;42.622;23.316;2023-04-30T12:40:26;17.99;59.32
65637;DHT22;52327;42.622;23.316;2023-04-30T12:43:02;17.85;58.20
65637;DHT22;52327;42.622;23.316;2023-04-30T12:45:53;17.79;58.19
65637;DHT22;52327;42.622;23.316;2023-04-30T12:48:24;17.79;59.10
65637;DHT22;52327;42.622;23.316;2023-04-30T12:50:59;17.78;58.58
65637;DHT22;52327;42.622;23.316;2023-04-30T12:53:29;17.88;58.59
65637;DHT22;52327;42.622;23.316;2023-04-30T12:56:15;17.94;61.96
65637;DHT22;52327;42.622;23.316;2023-04-30T12:58:43;18.16;59.91
65637;DHT22;52327;42.622;23.316;2023-04-30T13:01:15;18.39;61.90
65637;DHT22;52327;42.622;23.316;2023-04-30T13:03:41;18.66;57.85
65637;DHT22;52327;42.622;23.316;2023-04-30T13:06:06;18.97;59.98
65637;DHT22;52327;42.622;23.316;2023-04-30T13:08:32;19.78;55.40
65637;DHT22;52327;42.622;23.316;2023-04-30T13:10:58;20.27;55.55
65637;DHT22;52327;42.622;23.316;2023-04-30T13:13:24;20.48;54.82
65637;DHT22;52327;42.622;23.316;2023-04-30T13:15:49;20.58;53.32
65637;DHT22;52327;42.622;23.316;2023-04-30T13:18:14;21.02;51.87
65637;DHT22;52327;42.622;23.316;2023-04-30T13:20:40;20.91;53.12
65637;DHT22;52327;42.622;23.316;2023-04-30T13:23:08;21.06;52.65
65637;DHT22;52327;42.622;23.316;2023-04-30T13:25:34;23.06;48.31
65637;DHT22;52327;42.622;23.316;2023-04-30T13:28:00;24.24;45.15
65637;DHT22;52327;42.622;23.316;2023-04-30T13:30:26;25.92;43.14
65637;DHT22;52327;42.622;23.316;2023-04-30T13:32:52;25.24;42.99
65637;DHT22;52327;42.622;23.316;2023-04-30T13:35:18;23.97;45.05
65637;DHT22;52327;42.622;23.316;2023-04-30T13:37:44;22.75;45.18
65637;DHT22;52327;42.622;23.316;2023-04-30T13:40:09;22.01;50.95
65637;DHT22;52327;42.622;23.316;2023-04-30T13:42:40;21.59;49.43
65637;DHT22;52327;42.622;23.316;2023-04-30T13:45:07;20.91;47.31
65637;DHT22;52327;42.622;23.316;2023-04-30T13:47:33;20.50;46.56
65637;DHT22;52327;42.622;23.316;2023-04-30T13:49:59;20.24;50.80
65637;DHT22;52327;42.622;23.316;2023-04-30T13:52:25;20.00;49.30
65637;DHT22;52327;42.622;23.316;2023-04-30T13:54:51;19.92;51.19
65637;DHT22;52327;42.622;23.316;2023-04-30T13:57:16;19.85;53.95
65637;DHT22;52327;42.622;23.316;2023-04-30T13:59:42;19.66;49.93
65637;DHT22;52327;42.622;23.316;2023-04-30T14:02:10;19.42;48.59
65637;DHT22;52327;42.622;23.316;2023-04-30T14:04:35;19.32;48.63
65637;DHT22;52327;42.622;23.316;2023-04-30T14:07:02;19.48;48.59
65637;DHT22;52327;42.622;23.316;2023-04-30T14:09:28;19.89;47.10
65637;DHT22;52327;42.622;23.316;2023-04-30T14:11:54;21.14;48.28
65637;DHT22;52327;42.622;23.316;2023-04-30T14:14:22;21.02;45.13
65637;DHT22;52327;42.622;23.316;2023-04-30T14:16:47;20.91;46.83
65637;DHT22;52327;42.622;23.316;2023-04-30T14:19:15;22.43;41.16
65637;DHT22;52327;42.622;23.316;2023-04-30T14:21:41;23.89;39.49
65637;DHT22;52327;42.622;23.316;2023-04-30T14:24:07;23.03;40.47
65637;DHT22;52327;42.622;23.316;2023-04-30T14:26:33;25.03;34.73
65637;DHT22;52327;42.622;23.316;2023-04-30T14:28:58;25.41;36.03
65637;DHT22;52327;42.622;23.316;2023-04-30T14:31:24;25.26;35.63
65637;DHT22;52327;42.622;23.316;2023-04-30T14:33:49;28.21;34.10
65637;DHT22;52327;42.622;23.316;2023-04-30T14:36:15;27.12;31.93
65637;DHT22;52327;42.622;23.316;2023-04-30T14:38:40;25.13;35.62
65637;DHT22;52327;42.622;23.316;2023-04-30T14:41:06;23.05;38.34
65637;DHT22;52327;42.622;23.316;2023-04-30T14:43:31;22.22;40.36
65637;DHT22;52327;42.622;23.316;2023-04-30T14:45:57;22.07;40.68
65637;DHT22;52327;42.622;23.316;2023-04-30T14:48:23;22.84;37.01
65637;DHT22;52327;42.622;23.316;2023-04-30T14:50:50;24.86;35.22
65637;DHT22;52327;42.622;23.316;2023-04-30T14:53:16;27.05;31.67
65637;DHT22;52327;42.622;23.316;2023-04-30T14:55:41;27.21;30.42
65637;DHT22;52327;42.622;23.316;2023-04-30T14:58:07;27.65;31.51
65637;DHT22;52327;42.622;23.316;2023-04-30T15:00:32;26.60;31.79
65637;DHT22;52327;42.622;23.316;2023-04-30T15:02:58;26.02;32.08
65637;DHT22;52327;42.622;23.316;2023-04-30T15:05:24;25.75;33.33
65637;DHT22;52327;42.622;23.316;2023-04-30T15:07:50;26.57;31.26
65637;DHT22;52327;42.622;23.316;2023-04-30T15:10:15;27.48;28.79
65637;DHT22;52327;42.622;23.316;2023-04-30T15:12:41;27.32;29.10
65637;DHT22;52327;42.622;23.316;2023-04-30T15:15:07;25.65;31.80
65637;DHT22;52327;42.622;23.316;2023-04-30T15:17:32;23.94;34.00
65637;DHT22;52327;42.622;23.316;2023-04-30T15:20:02;22.73;36.22
65637;DHT22;52327;42.622;23.316;2023-04-30T15:22:28;21.80;38.95
65637;DHT22;52327;42.622;23.316;2023-04-30T15:24:53;20.92;42.43
65637;DHT22;52327;42.622;23.316;2023-04-30T15:27:20;20.53;41.91
65637;DHT22;52327;42.622;23.316;2023-04-30T15:29:46;20.05;43.15
65637;DHT22;52327;42.622;23.316;2023-04-30T15:32:11;19.51;46.24
65637;DHT22;52327;42.622;23.316;2023-04-30T15:34:38;19.34;48.78
65637;DHT22;52327;42.622;23.316;2023-04-30T15:37:03;19.41;50.48
65637;DHT22;52327;42.622;23.316;2023-04-30T15:39:29;19.65;47.61
65637;DHT22;52327;42.622;23.316;2023-04-30T15:41:54;19.66;50.71
65637;DHT22;52327;42.622;23.316;2023-04-30T15:44:19;19.66;49.56
65637;DHT22;52327;42.622;23.316;2023-04-30T15:46:45;19.68;51.30
65637;DHT22;52327;42.622;23.316;2023-04-30T15:49:10;19.66;48.68
65637;DHT22;52327;42.622;23.316;2023-04-30T15:51:36;19.57;52.70